Time;durP1;ratioP1;P1;durP2;ratioP2;P2;SDS_P1;SDS_P2;PMS_P1;PMS_P2;Temp;Humidity;BMP_temperature;BMP_pressure;BME280_temperature;BME280_humidity;BME280_pressure;Samples;Min_cycle;Max_cycle;Signal;HPM_P1;HPM_P2
2021/10/23 00:01:08;;;;;;;21.90;6.87;;;8.80;98.40;;;;;;4992578;28;20201;-77
2021/10/23 00:03:34;;;;;;;25.83;8.60;;;8.80;97.70;;;;;;5009722;28;20184;-77
2021/10/23 00:06:00;;;;;;;17.97;8.53;;;8.60;99.30;;;;;;5009887;28;20576;-77
2021/10/23 00:08:25;;;;;;;16.77;8.27;;;8.60;99.90;;;;;;5016021;28;20223;-79
2021/10/23 00:10:51;;;;;;;18.13;9.20;;;8.60;99.90;;;;;;5014144;28;20443;-77
2021/10/23 00:13:17;;;;;;;17.27;8.17;;;8.70;99.90;;;;;;5014968;28;20208;-78
2021/10/23 00:15:42;;;;;;;11.57;7.40;;;8.70;99.90;;;;;;5017996;28;20202;-77
2021/10/23 00:18:08;;;;;;;23.73;8.77;;;8.70;99.90;;;;;;5015540;28;20210;-76
2021/10/23 00:20:33;;;;;;;19.03;7.93;;;8.80;99.90;;;;;;5014384;28;20192;-78
2021/10/23 00:22:59;;;;;;;18.70;8.93;;;8.90;99.90;;;;;;5016162;28;20602;-76
2021/10/23 00:25:24;;;;;;;14.60;7.63;;;9.00;99.90;;;;;;5011615;28;20213;-76
2021/10/23 00:27:50;;;;;;;14.30;8.67;;;9.00;99.90;;;;;;4997401;28;20200;-77
2021/10/23 00:30:16;;;;;;;14.07;7.80;;;9.00;99.90;;;;;;5011985;28;20195;-78
2021/10/23 00:32:42;;;;;;;19.83;9.17;;;9.10;99.90;;;;;;5020991;28;20177;-77
2021/10/23 00:35:08;;;;;;;13.13;8.77;;;9.10;99.90;;;;;;5022241;28;20438;-77
2021/10/23 00:37:34;;;;;;;19.50;9.50;;;9.10;99.90;;;;;;5019700;28;20423;-78
2021/10/23 00:40:00;;;;;;;38.07;10.10;;;9.20;99.70;;;;;;5013944;28;20432;-79
2021/10/23 00:42:25;;;;;;;21.07;10.07;;;9.10;99.80;;;;;;5012291;28;20672;-78
2021/10/23 00:44:51;;;;;;;21.63;9.70;;;9.20;99.90;;;;;;5013472;28;20235;-78
2021/10/23 00:47:20;;;;;;;21.17;10.97;;;9.20;97.90;;;;;;5028954;28;20172;-78
2021/10/23 00:49:48;;;;;;;18.90;9.50;;;9.30;97.00;;;;;;5020984;28;20184;-78
2021/10/23 00:52:14;;;;;;;17.67;9.80;;;9.30;95.00;;;;;;5015270;28;20448;-77
2021/10/23 00:54:40;;;;;;;18.50;9.90;;;9.20;94.80;;;;;;5029978;28;20837;-77
2021/10/23 00:57:07;;;;;;;19.93;9.97;;;9.10;96.60;;;;;;5024624;28;20412;-78
2021/10/23 00:59:33;;;;;;;24.37;11.50;;;9.10;97.90;;;;;;5019254;28;20427;-78
2021/10/23 01:02:00;;;;;;;22.40;10.90;;;9.20;98.20;;;;;;5010508;28;20474;-78
2021/10/23 01:04:25;;;;;;;31.13;10.33;;;9.30;95.80;;;;;;5018376;28;20438;-78
2021/10/23 01:06:52;;;;;;;21.10;10.07;;;9.30;94.80;;;;;;5018987;28;20403;-78
2021/10/23 01:09:18;;;;;;;16.87;10.80;;;9.30;94.80;;;;;;5018685;28;20224;-78
2021/10/23 01:11:44;;;;;;;23.80;10.80;;;9.30;93.40;;;;;;5028254;28;20432;-77
2021/10/23 01:14:15;;;;;;;32.63;10.70;;;9.30;93.50;;;;;;5018370;28;20935;-77
2021/10/23 01:16:41;;;;;;;25.00;12.43;;;9.30;93.50;;;;;;5016595;28;20404;-77
2021/10/23 01:19:09;;;;;;;29.10;11.63;;;9.20;92.40;;;;;;5015919;28;20416;-78
2021/10/23 01:21:34;;;;;;;19.67;10.50;;;9.30;92.90;;;;;;5016687;28;20522;-78
2021/10/23 01:24:00;;;;;;;23.20;11.23;;;9.20;93.40;;;;;;5016698;28;20521;-78
2021/10/23 01:26:26;;;;;;;23.87;11.80;;;9.30;94.80;;;;;;5017614;28;20251;-78
2021/10/23 01:28:52;;;;;;;23.63;11.70;;;9.30;91.10;;;;;;5015197;28;20552;-78
2021/10/23 01:31:18;;;;;;;19.77;10.43;;;9.40;91.40;;;;;;5012047;28;20239;-78
2021/10/23 01:33:44;;;;;;;24.97;12.53;;;9.40;90.60;;;;;;5017880;28;20176;-78
2021/10/23 01:36:13;;;;;;;17.40;11.67;;;9.30;91.00;;;;;;5019255;28;20453;-78
2021/10/23 01:38:39;;;;;;;26.23;11.63;;;9.20;93.10;;;;;;5018063;28;20661;-77
2021/10/23 01:41:06;;;;;;;21.93;11.47;;;9.20;94.30;;;;;;5017781;28;20504;-77
2021/10/23 01:43:33;;;;;;;23.20;13.37;;;9.20;94.50;;;;;;5016777;28;20922;-78
2021/10/23 01:45:59;;;;;;;23.90;11.90;;;9.20;94.40;;;;;;5025598;28;20487;-77
2021/10/23 01:48:24;;;;;;;34.93;13.23;;;9.20;94.00;;;;;;5026933;28;20736;-77
2021/10/23 01:50:50;;;;;;;21.87;12.07;;;9.40;91.70;;;;;;5025323;28;20252;-77
2021/10/23 01:53:15;;;;;;;22.27;12.70;;;9.40;90.50;;;;;;5019781;28;20171;-77
2021/10/23 01:55:41;;;;;;;20.27;12.17;;;9.40;89.30;;;;;;5021751;28;20207;-77
2021/10/23 01:58:08;;;;;;;31.00;13.20;;;9.40;89.50;;;;;;5028178;28;20181;-77
2021/10/23 02:00:33;;;;;;;27.30;13.20;;;9.40;88.30;;;;;;5022577;28;20578;-77
2021/10/23 02:02:59;;;;;;;30.07;14.23;;;9.30;90.40;;;;;;5014694;28;20505;-77
2021/10/23 02:05:25;;;;;;;23.97;12.60;;;9.30;91.50;;;;;;5015725;28;20285;-77
2021/10/23 02:07:50;;;;;;;28.13;13.17;;;9.30;92.60;;;;;;5017561;28;20287;-77
2021/10/23 02:10:16;;;;;;;32.80;15.53;;;9.10;92.60;;;;;;5018253;28;20179;-77
2021/10/23 02:12:42;;;;;;;30.87;13.90;;;9.10;91.90;;;;;;5017290;28;20194;-76
2021/10/23 02:15:08;;;;;;;34.63;13.23;;;9.00;94.10;;;;;;5017211;28;20189;-77
2021/10/23 02:17:34;;;;;;;32.73;14.53;;;8.90;94.30;;;;;;5018098;28;20222;-76
2021/10/23 02:20:01;;;;;;;29.77;15.17;;;8.90;96.70;;;;;;5014044;28;20469;-77
2021/10/23 02:22:27;;;;;;;25.00;13.77;;;8.80;97.10;;;;;;5012821;28;20431;-77
2021/10/23 02:24:52;;;;;;;27.23;14.47;;;8.60;99.90;;;;;;5012799;28;20440;-77
2021/10/23 02:27:18;;;;;;;34.83;15.60;;;8.70;99.90;;;;;;5014677;28;20177;-77
2021/10/23 02:29:43;;;;;;;33.07;15.80;;;8.50;99.60;;;;;;5008541;28;20529;-77
2021/10/23 02:32:09;;;;;;;35.27;15.23;;;8.40;99.90;;;;;;5008684;28;20640;-78
2021/10/23 02:34:35;;;;;;;32.03;15.57;;;8.40;99.90;;;;;;5021242;28;20196;-78
2021/10/23 02:37:00;;;;;;;34.30;15.77;;;8.40;99.90;;;;;;5018663;28;20199;-76
2021/10/23 02:39:26;;;;;;;33.57;14.50;;;8.40;99.90;;;;;;5018322;28;20677;-77
2021/10/23 02:41:51;;;;;;;34.40;15.50;;;8.30;99.90;;;;;;5017445;28;20183;-77
2021/10/23 02:44:17;;;;;;;45.20;16.83;;;8.40;99.90;;;;;;5012804;28;20203;-79
2021/10/23 02:46:42;;;;;;;38.80;17.90;;;8.30;99.90;;;;;;5017943;28;20234;-78
2021/10/23 02:49:09;;;;;;;32.27;16.83;;;8.20;99.90;;;;;;5016202;28;20204;-77
2021/10/23 02:51:35;;;;;;;35.00;17.73;;;8.20;99.90;;;;;;5013263;28;20177;-78
2021/10/23 02:54:00;;;;;;;37.87;16.87;;;8.30;99.90;;;;;;5013259;28;20900;-77
2021/10/23 02:56:26;;;;;;;41.93;17.50;;;8.20;99.90;;;;;;5014527;28;20416;-77
2021/10/23 02:58:52;;;;;;;32.73;17.10;;;8.20;99.90;;;;;;5014173;28;20177;-77
2021/10/23 03:01:18;;;;;;;42.90;16.53;;;8.20;99.90;;;;;;5013492;28;20200;-77
2021/10/23 03:03:44;;;;;;;45.27;18.90;;;8.20;99.90;;;;;;5004117;28;20440;-77
2021/10/23 03:06:10;;;;;;;34.13;17.80;;;8.10;99.90;;;;;;5012610;28;20419;-77
2021/10/23 03:08:36;;;;;;;38.60;16.10;;;8.00;99.90;;;;;;5011365;28;20206;-77
2021/10/23 03:11:03;;;;;;;30.70;16.10;;;8.10;99.90;;;;;;5013185;28;20178;-78
2021/10/23 03:13:28;;;;;;;43.70;17.90;;;8.20;99.90;;;;;;5016744;28;20983;-78
2021/10/23 03:15:55;;;;;;;39.50;17.47;;;8.40;99.90;;;;;;5013023;28;20478;-77
2021/10/23 03:18:21;;;;;;;32.13;18.13;;;8.20;99.90;;;;;;5015134;28;20207;-76
2021/10/23 03:20:47;;;;;;;35.70;18.23;;;8.00;99.90;;;;;;5014902;28;20936;-78
2021/10/23 03:23:16;;;;;;;44.40;19.63;;;7.90;99.90;;;;;;5017111;28;20431;-78
2021/10/23 03:25:43;;;;;;;39.97;16.43;;;8.00;99.90;;;;;;5016985;28;20195;-78
2021/10/23 03:28:08;;;;;;;51.70;19.03;;;8.00;99.90;;;;;;5015568;28;20470;-77
2021/10/23 03:30:34;;;;;;;42.87;18.67;;;8.00;99.90;;;;;;5005047;28;20503;-78
2021/10/23 03:33:00;;;;;;;44.30;18.23;;;8.00;99.90;;;;;;5006342;28;20274;-78
2021/10/23 03:35:25;;;;;;;34.70;18.07;;;8.10;99.90;;;;;;5007809;28;20185;-77
2021/10/23 03:37:51;;;;;;;42.50;19.90;;;8.10;99.90;;;;;;5013423;28;20754;-77
2021/10/23 03:40:16;;;;;;;40.00;18.40;;;8.20;99.90;;;;;;5011512;28;20270;-77
2021/10/23 03:42:42;;;;;;;43.60;18.40;;;8.20;99.90;;;;;;5011655;28;20661;-77
2021/10/23 03:45:08;;;;;;;48.43;20.07;;;8.10;99.90;;;;;;5014857;28;20203;-76
2021/10/23 03:47:34;;;;;;;44.27;20.53;;;8.20;99.90;;;;;;5016766;28;20196;-76
2021/10/23 03:49:59;;;;;;;48.33;20.87;;;8.30;99.90;;;;;;5016720;28;20408;-75
2021/10/23 03:52:25;;;;;;;43.30;21.07;;;8.30;99.90;;;;;;5015870;28;20180;-77
2021/10/23 03:54:50;;;;;;;46.67;19.53;;;8.20;99.90;;;;;;5027653;28;20235;-77
2021/10/23 03:57:16;;;;;;;38.93;18.57;;;8.20;99.90;;;;;;5019277;28;20252;-77
2021/10/23 03:59:41;;;;;;;54.07;21.17;;;8.10;99.90;;;;;;5023024;28;20168;-77
2021/10/23 04:02:07;;;;;;;50.80;21.63;;;8.10;99.90;;;;;;5023871;28;20203;-80
2021/10/23 04:04:33;;;;;;;37.03;18.37;;;7.90;99.90;;;;;;5019130;28;20197;-77
2021/10/23 04:06:59;;;;;;;38.63;18.90;;;7.80;99.90;;;;;;5019695;28;20200;-78
2021/10/23 04:09:24;;;;;;;42.70;17.97;;;7.70;99.90;;;;;;5021601;28;20469;-78
2021/10/23 04:11:50;;;;;;;36.03;16.70;;;7.60;99.90;;;;;;5017526;28;20179;-77
2021/10/23 04:14:16;;;;;;;37.17;18.00;;;7.40;99.90;;;;;;5016736;28;20192;-77
2021/10/23 04:16:41;;;;;;;37.70;18.60;;;7.40;99.90;;;;;;5016882;28;20665;-76
2021/10/23 04:19:07;;;;;;;44.73;19.20;;;7.30;99.90;;;;;;5016085;28;20180;-76
2021/10/23 04:21:32;;;;;;;53.40;20.13;;;7.30;99.90;;;;;;5031637;28;20660;-76
2021/10/23 04:23:58;;;;;;;47.43;18.73;;;7.40;99.90;;;;;;5017833;28;20250;-76
2021/10/23 04:26:24;;;;;;;44.20;20.13;;;7.30;99.90;;;;;;5019703;28;20181;-76
2021/10/23 04:28:49;;;;;;;46.90;19.70;;;7.40;99.90;;;;;;5027282;28;20196;-78
2021/10/23 04:31:15;;;;;;;43.00;19.13;;;7.40;99.90;;;;;;5029216;28;20547;-78
2021/10/23 04:33:40;;;;;;;38.53;18.33;;;7.30;99.90;;;;;;5016458;28;20547;-77
2021/10/23 04:36:06;;;;;;;46.47;18.60;;;7.30;99.90;;;;;;5015599;28;20208;-77
2021/10/23 04:38:32;;;;;;;45.53;18.70;;;7.30;99.90;;;;;;5016025;28;20267;-77
2021/10/23 04:40:58;;;;;;;38.53;18.97;;;7.30;99.90;;;;;;5015213;28;20260;-77
2021/10/23 04:43:23;;;;;;;44.70;20.40;;;7.30;99.90;;;;;;5016516;28;20415;-77
2021/10/23 04:45:49;;;;;;;37.93;18.63;;;7.30;99.90;;;;;;5017108;28;20238;-76
2021/10/23 04:48:15;;;;;;;44.17;20.80;;;7.30;99.90;;;;;;5015707;28;20208;-76
2021/10/23 04:50:40;;;;;;;38.43;18.90;;;7.20;99.90;;;;;;5014989;28;20583;-76
2021/10/23 04:53:06;;;;;;;38.47;19.83;;;7.10;99.90;;;;;;5008188;28;20541;-77
2021/10/23 04:55:32;;;;;;;42.10;19.10;;;7.20;99.90;;;;;;5015351;28;20578;-75
2021/10/23 04:57:58;;;;;;;41.63;19.67;;;7.40;99.90;;;;;;5015497;28;20752;-76
2021/10/23 05:00:24;;;;;;;43.03;20.53;;;7.40;99.90;;;;;;5016059;28;20719;-75
2021/10/23 05:02:50;;;;;;;49.73;22.23;;;7.40;99.90;;;;;;5014589;28;20214;-75
2021/10/23 05:05:16;;;;;;;63.43;27.83;;;7.40;99.90;;;;;;5014755;28;20515;-75
2021/10/23 05:07:41;;;;;;;68.67;30.43;;;7.60;99.90;;;;;;5014530;28;20295;-75
2021/10/23 05:10:07;;;;;;;157.53;64.87;;;7.60;99.90;;;;;;5014515;28;20287;-75
2021/10/23 05:12:33;;;;;;;117.30;54.60;;;7.70;99.90;;;;;;5014185;28;20180;-75
2021/10/23 05:14:58;;;;;;;95.27;44.50;;;7.70;99.90;;;;;;5014326;28;20457;-76
2021/10/23 05:17:24;;;;;;;97.00;40.60;;;7.80;99.90;;;;;;5016240;28;20179;-76
2021/10/23 05:19:50;;;;;;;94.73;38.20;;;7.90;99.90;;;;;;5013405;28;20703;-76
2021/10/23 05:22:15;;;;;;;76.23;35.57;;;7.90;99.90;;;;;;5015225;28;20193;-77
2021/10/23 05:24:41;;;;;;;82.30;35.93;;;8.00;99.90;;;;;;5016842;28;20200;-75
2021/10/23 05:27:06;;;;;;;73.80;35.70;;;8.00;99.90;;;;;;5017387;28;20192;-75
2021/10/23 05:29:32;;;;;;;85.70;38.60;;;7.90;99.90;;;;;;5015471;28;20205;-76
2021/10/23 05:31:58;;;;;;;105.30;40.97;;;8.00;99.90;;;;;;5017979;28;20207;-77
2021/10/23 05:34:23;;;;;;;90.13;38.50;;;8.10;99.90;;;;;;5037206;28;20205;-75
2021/10/23 05:36:49;;;;;;;81.40;36.63;;;8.00;99.90;;;;;;5020617;28;20184;-75
2021/10/23 05:39:15;;;;;;;73.43;36.37;;;8.00;99.90;;;;;;5022487;28;20180;-77
2021/10/23 05:41:41;;;;;;;80.07;36.60;;;8.00;99.90;;;;;;5023389;28;20419;-76
2021/10/23 05:44:06;;;;;;;76.27;32.87;;;7.90;99.90;;;;;;5022458;28;20246;-77
2021/10/23 05:46:32;;;;;;;79.70;37.50;;;8.00;99.90;;;;;;5023095;28;20188;-76
2021/10/23 05:48:57;;;;;;;76.30;36.17;;;8.10;99.90;;;;;;5022224;28;20262;-77
2021/10/23 05:51:23;;;;;;;79.73;35.97;;;8.10;99.90;;;;;;5021163;28;20632;-77
2021/10/23 05:53:48;;;;;;;67.27;31.10;;;8.00;99.90;;;;;;5021544;28;20179;-77
2021/10/23 05:56:14;;;;;;;73.40;33.87;;;8.00;99.90;;;;;;5022179;28;20199;-77
2021/10/23 05:58:40;;;;;;;78.20;34.20;;;7.90;99.90;;;;;;5018552;28;20196;-77
2021/10/23 06:01:07;;;;;;;85.97;35.20;;;7.90;99.90;;;;;;5015857;28;20668;-77
2021/10/23 06:03:35;;;;;;;82.77;34.40;;;8.00;99.90;;;;;;5014297;28;20644;-77
2021/10/23 06:06:03;;;;;;;72.57;31.80;;;8.10;99.90;;;;;;5013973;28;20442;-77
2021/10/23 06:08:30;;;;;;;69.50;30.00;;;8.00;99.90;;;;;;5014029;28;20517;-76
2021/10/23 06:10:56;;;;;;;70.90;30.37;;;7.90;99.90;;;;;;5012507;28;20519;-76
2021/10/23 06:13:23;;;;;;;79.17;29.33;;;8.00;99.90;;;;;;5013649;28;20452;-76
2021/10/23 06:15:50;;;;;;;72.63;29.70;;;7.90;99.90;;;;;;5013824;28;20431;-76
2021/10/23 06:18:15;;;;;;;72.00;31.13;;;7.80;99.90;;;;;;5013689;28;20412;-75
2021/10/23 06:20:41;;;;;;;69.80;28.87;;;7.70;99.90;;;;;;5013954;28;20445;-77
2021/10/23 06:23:06;;;;;;;67.10;28.60;;;7.80;99.90;;;;;;5013821;28;20203;-77
2021/10/23 06:25:32;;;;;;;56.70;26.77;;;7.80;99.90;;;;;;5015245;28;20574;-76
2021/10/23 06:27:58;;;;;;;61.27;27.73;;;7.80;99.90;;;;;;5016062;28;20287;-77
2021/10/23 06:30:25;;;;;;;73.27;26.83;;;7.80;99.90;;;;;;5005026;28;20608;-77
2021/10/23 06:32:53;;;;;;;62.80;27.27;;;7.70;99.90;;;;;;5002362;28;20642;-76
2021/10/23 06:35:19;;;;;;;67.27;28.07;;;7.80;99.90;;;;;;5013954;28;21007;-76
2021/10/23 06:37:45;;;;;;;75.87;29.70;;;7.80;99.90;;;;;;5014145;28;20510;-77
2021/10/23 06:40:11;;;;;;;68.13;28.87;;;7.80;99.90;;;;;;5013735;28;20419;-77
2021/10/23 06:42:39;;;;;;;73.60;29.93;;;7.70;99.90;;;;;;5014148;28;20431;-77
2021/10/23 06:45:07;;;;;;;60.53;26.73;;;7.70;99.90;;;;;;5025056;28;20447;-77
2021/10/23 06:47:32;;;;;;;61.47;27.93;;;7.70;99.90;;;;;;5025564;28;20423;-77
2021/10/23 06:49:58;;;;;;;70.77;29.80;;;7.70;99.90;;;;;;5015830;28;20442;-76
2021/10/23 06:52:25;;;;;;;55.30;27.07;;;7.80;99.90;;;;;;5010399;28;20181;-76
2021/10/23 06:54:52;;;;;;;61.63;27.23;;;8.00;99.90;;;;;;5012490;28;20821;-76
2021/10/23 06:57:17;;;;;;;60.60;26.90;;;8.00;99.90;;;;;;5015533;28;20416;-76
2021/10/23 06:59:43;;;;;;;66.37;31.70;;;8.00;99.90;;;;;;5023036;28;20411;-76
2021/10/23 07:02:09;;;;;;;61.10;29.23;;;7.90;99.90;;;;;;5024510;28;20179;-77
2021/10/23 07:04:34;;;;;;;69.67;27.40;;;8.00;99.90;;;;;;5022060;28;20210;-77
2021/10/23 07:07:00;;;;;;;63.17;28.10;;;8.10;99.90;;;;;;5014034;28;20215;-77
2021/10/23 07:09:26;;;;;;;59.13;28.40;;;8.00;99.90;;;;;;5012748;28;20203;-77
2021/10/23 07:11:51;;;;;;;59.37;28.00;;;8.00;99.90;;;;;;5013641;28;20169;-78
2021/10/23 07:14:17;;;;;;;74.30;27.17;;;8.10;99.90;;;;;;5013993;28;20573;-77
2021/10/23 07:16:42;;;;;;;59.97;26.57;;;8.20;99.90;;;;;;5014371;28;20184;-77
2021/10/23 07:19:08;;;;;;;64.27;28.23;;;8.20;99.90;;;;;;5015598;28;20188;-76
2021/10/23 07:21:33;;;;;;;73.23;28.37;;;8.20;99.90;;;;;;5015619;28;20557;-77
2021/10/23 07:23:59;;;;;;;59.83;28.80;;;8.30;99.90;;;;;;5014260;28;20672;-75
2021/10/23 07:26:25;;;;;;;69.10;29.10;;;8.40;99.90;;;;;;5013557;28;20177;-77
2021/10/23 07:28:52;;;;;;;66.87;28.47;;;8.50;99.90;;;;;;5012260;28;20218;-76
2021/10/23 07:31:17;;;;;;;63.70;28.97;;;8.60;99.90;;;;;;5010433;28;20412;-77
2021/10/23 07:33:43;;;;;;;63.03;28.60;;;8.70;99.90;;;;;;5013719;28;20918;-78
2021/10/23 07:36:08;;;;;;;83.47;30.63;;;8.80;99.90;;;;;;5015589;28;20258;-78
2021/10/23 07:38:35;;;;;;;65.00;29.47;;;8.80;99.90;;;;;;5015393;28;20263;-78
2021/10/23 07:41:01;;;;;;;49.43;26.70;;;8.80;99.90;;;;;;5014363;28;20242;-77
2021/10/23 07:43:26;;;;;;;56.17;27.40;;;8.90;99.90;;;;;;5015275;28;20415;-77
2021/10/23 07:45:52;;;;;;;60.20;28.33;;;9.00;99.90;;;;;;5013176;28;20192;-77
2021/10/23 07:48:19;;;;;;;61.07;28.50;;;9.10;99.90;;;;;;5006789;28;20604;-76
2021/10/23 07:50:48;;;;;;;63.03;26.73;;;9.20;99.90;;;;;;4996388;28;20187;-77
2021/10/23 07:53:15;;;;;;;60.77;28.20;;;9.40;99.90;;;;;;5020855;28;20446;-78
2021/10/23 07:55:41;;;;;;;63.17;28.70;;;9.50;99.90;;;;;;5014876;28;20471;-77
2021/10/23 07:58:07;;;;;;;57.93;27.97;;;9.50;99.90;;;;;;5012758;28;20427;-75
2021/10/23 08:00:33;;;;;;;63.30;28.00;;;9.60;99.90;;;;;;5011190;28;20912;-75
2021/10/23 08:02:59;;;;;;;53.53;29.10;;;9.60;99.90;;;;;;5012046;28;20445;-76
2021/10/23 08:05:27;;;;;;;66.03;28.77;;;9.80;99.90;;;;;;5010405;28;21005;-76
2021/10/23 08:07:53;;;;;;;49.60;26.80;;;9.80;99.90;;;;;;5008329;28;20532;-76
2021/10/23 08:10:20;;;;;;;49.50;26.17;;;9.90;99.90;;;;;;5013382;28;20431;-78
2021/10/23 08:12:47;;;;;;;47.87;27.27;;;10.00;99.90;;;;;;5007994;28;20450;-78
2021/10/23 08:15:12;;;;;;;49.00;25.60;;;10.20;99.90;;;;;;5007667;28;20462;-76
2021/10/23 08:17:39;;;;;;;54.97;26.70;;;10.40;99.90;;;;;;5003736;28;20439;-76
2021/10/23 08:20:06;;;;;;;52.30;25.70;;;10.50;99.90;;;;;;5006132;28;20939;-77
2021/10/23 08:22:32;;;;;;;47.07;24.30;;;10.70;95.40;;;;;;5009977;28;20427;-76
2021/10/23 08:24:58;;;;;;;50.63;24.30;;;10.80;92.60;;;;;;5009628;28;20811;-76
2021/10/23 08:27:23;;;;;;;50.50;25.43;;;10.90;87.60;;;;;;5010962;28;20241;-76
2021/10/23 08:29:49;;;;;;;43.97;23.17;;;11.10;89.70;;;;;;5009665;28;20192;-77
2021/10/23 08:32:16;;;;;;;46.57;24.50;;;11.10;81.60;;;;;;5009922;28;20222;-76
2021/10/23 08:34:44;;;;;;;44.07;22.87;;;11.00;82.90;;;;;;5012537;28;20201;-78
2021/10/23 08:37:12;;;;;;;33.90;21.23;;;11.10;79.10;;;;;;5015108;28;20836;-77
2021/10/23 08:39:37;;;;;;;49.80;24.17;;;11.20;85.00;;;;;;5015331;28;20435;-75
2021/10/23 08:42:03;;;;;;;45.90;23.40;;;11.40;77.10;;;;;;5014249;28;20453;-76
2021/10/23 08:44:31;;;;;;;40.87;22.50;;;11.40;77.90;;;;;;5015023;28;20711;-76
2021/10/23 08:46:58;;;;;;;45.23;22.97;;;11.50;74.50;;;;;;5014576;28;20912;-75
2021/10/23 08:49:24;;;;;;;41.87;23.97;;;11.50;73.80;;;;;;5014927;28;20478;-76
2021/10/23 08:51:50;;;;;;;41.90;22.60;;;11.90;66.70;;;;;;5014872;28;20435;-76
2021/10/23 08:54:16;;;;;;;41.70;21.60;;;12.20;57.90;;;;;;5005698;28;20462;-77
2021/10/23 08:56:42;;;;;;;42.80;22.40;;;12.40;53.60;;;;;;5026036;28;20423;-77
2021/10/23 08:59:08;;;;;;;45.03;23.63;;;12.30;55.20;;;;;;5011050;28;20213;-77
2021/10/23 09:01:33;;;;;;;46.77;23.97;;;12.40;52.80;;;;;;5016852;28;20435;-77
2021/10/23 09:03:59;;;;;;;36.93;20.17;;;12.50;52.20;;;;;;5017109;28;20278;-78
2021/10/23 09:06:36;;;;;;;50.93;21.90;;;12.40;51.10;;;;;;5006032;28;20538;-78
2021/10/23 09:09:14;;;;;;;46.47;21.53;;;12.40;53.90;;;;;;5001570;28;20211;-77
2021/10/23 09:11:42;;;;;;;50.60;23.77;;;12.50;51.60;;;;;;5009161;28;20458;-78
2021/10/23 09:14:35;;;;;;;43.17;21.23;;;12.50;51.60;;;;;;5016584;28;20472;-78
2021/10/23 09:17:03;;;;;;;36.50;21.47;;;12.40;49.10;;;;;;5015515;28;20420;-78
2021/10/23 09:19:42;;;;;;;40.10;20.73;;;12.40;51.00;;;;;;5024034;28;20938;-80
2021/10/23 09:22:22;;;;;;;40.63;21.53;;;12.60;49.10;;;;;;5021390;28;20434;-79
2021/10/23 09:24:49;;;;;;;38.00;22.37;;;12.70;49.40;;;;;;5015760;28;20447;-79
2021/10/23 09:27:17;;;;;;;42.57;20.60;;;12.90;50.20;;;;;;5022739;28;20499;-79
2021/10/23 09:29:43;;;;;;;43.93;22.03;;;13.30;45.40;;;;;;5020104;28;20498;-79
2021/10/23 09:32:10;;;;;;;37.00;22.77;;;13.40;44.70;;;;;;5022479;28;20422;-79
2021/10/23 09:34:36;;;;;;;36.50;22.53;;;13.60;43.60;;;;;;5019616;28;20200;-79
2021/10/23 09:37:03;;;;;;;40.43;21.53;;;13.80;41.10;;;;;;5022756;28;20462;-77
2021/10/23 09:39:31;;;;;;;52.23;23.80;;;13.90;40.70;;;;;;5018801;28;20419;-77
2021/10/23 09:42:14;;;;;;;34.37;20.57;;;13.90;42.20;;;;;;5014758;28;20416;-77
2021/10/23 09:45:05;;;;;;;46.50;23.60;;;14.20;40.20;;;;;;5010911;28;20451;-77
2021/10/23 09:47:34;;;;;;;37.67;22.07;;;14.20;39.60;;;;;;5010110;28;20473;-77
2021/10/23 09:50:16;;;;;;;57.83;22.70;;;14.30;38.80;;;;;;5019081;28;20399;-78
2021/10/23 09:53:06;;;;;;;38.23;20.70;;;14.40;38.20;;;;;;5019228;28;20490;-78
2021/10/23 09:55:51;;;;;;;50.23;21.00;;;14.50;38.40;;;;;;5027872;28;20737;-76
2021/10/23 09:58:21;;;;;;;34.10;18.13;;;14.50;37.60;;;;;;5013571;28;21011;-77
2021/10/23 10:00:53;;;;;;;38.87;20.17;;;14.40;36.70;;;;;;5018452;28;20404;-78
2021/10/23 10:03:20;;;;;;;35.60;19.07;;;14.50;37.50;;;;;;5020501;28;20437;-80
2021/10/23 10:05:53;;;;;;;29.83;16.90;;;14.80;34.40;;;;;;5026257;28;20410;-77
2021/10/23 10:08:19;;;;;;;28.43;15.90;;;14.80;34.20;;;;;;5016619;28;20904;-77
2021/10/23 10:10:46;;;;;;;36.90;15.97;;;14.80;33.90;;;;;;5018909;28;20452;-77
2021/10/23 10:13:17;;;;;;;31.03;16.40;;;14.90;33.50;;;;;;5005617;28;20178;-76
2021/10/23 10:15:58;;;;;;;30.13;14.20;;;14.70;34.60;;;;;;5014384;28;20924;-76
2021/10/23 10:18:24;;;;;;;21.43;13.80;;;14.40;34.40;;;;;;5019360;28;20435;-80
2021/10/23 10:20:57;;;;;;;22.73;15.00;;;14.30;34.70;;;;;;5025974;28;20432;-77
2021/10/23 10:23:33;;;;;;;27.83;13.13;;;14.30;35.80;;;;;;5020946;28;20659;-76
2021/10/23 10:26:28;;;;;;;229.00;120.90;;;14.40;34.10;;;;;;5013617;28;20467;-76
2021/10/23 10:29:10;;;;;;;21.77;12.67;;;14.30;35.80;;;;;;5004264;28;20561;-78
2021/10/23 10:34:47;;;;;;;31.37;13.43;;;14.90;32.20;;;;;;5018403;28;20548;-79
2021/10/23 10:42:58;;;;;;;16.50;11.40;;;14.80;32.30;;;;;;5012163;28;20440;-78
2021/10/23 10:45:36;;;;;;;23.70;11.73;;;14.90;32.00;;;;;;5010733;28;20511;-77
2021/10/23 10:48:34;;;;;;;25.50;13.30;;;14.90;32.00;;;;;;5010104;28;20440;-77
2021/10/23 10:51:04;;;;;;;25.73;12.57;;;15.00;32.90;;;;;;4995692;28;20433;-77
2021/10/23 10:53:32;;;;;;;24.37;12.23;;;15.10;32.70;;;;;;5008700;28;20468;-77
2021/10/23 10:56:06;;;;;;;22.50;12.70;;;15.00;33.10;;;;;;5025378;28;20541;-77
2021/10/23 10:59:03;;;;;;;22.80;9.60;;;15.00;33.00;;;;;;5014889;28;20460;-75
2021/10/23 11:01:30;;;;;;;27.20;10.27;;;14.90;31.60;;;;;;4997055;28;20411;-77
2021/10/23 11:03:58;;;;;;;15.63;9.20;;;15.00;31.50;;;;;;5012482;28;20434;-76
2021/10/23 11:06:39;;;;;;;29.07;12.37;;;15.00;32.40;;;;;;5012424;28;20439;-75
2021/10/23 11:09:10;;;;;;;21.23;10.10;;;14.80;32.90;;;;;;5013129;28;20857;-75
2021/10/23 11:11:45;;;;;;;32.93;11.10;;;15.10;32.50;;;;;;5013319;28;20486;-77
2021/10/23 11:14:19;;;;;;;26.50;10.47;;;15.20;31.80;;;;;;5013272;28;20438;-77
2021/10/23 11:16:57;;;;;;;22.40;8.70;;;15.20;32.00;;;;;;5008379;28;20435;-77
2021/10/23 11:19:24;;;;;;;17.93;9.03;;;15.50;30.60;;;;;;5015734;28;20984;-76
2021/10/23 11:22:09;;;;;;;22.43;10.60;;;15.70;30.10;;;;;;5013708;28;20516;-77
2021/10/23 11:24:49;;;;;;;24.13;8.73;;;16.00;28.50;;;;;;5012504;28;20442;-76
2021/10/23 11:27:33;;;;;;;19.87;10.00;;;16.00;29.40;;;;;;5011405;28;20514;-76
2021/10/23 11:30:20;;;;;;;23.27;9.00;;;15.70;29.40;;;;;;5010564;28;20469;-77
2021/10/23 11:33:10;;;;;;;31.00;8.80;;;15.50;28.40;;;;;;5019470;28;20399;-77
2021/10/23 11:35:51;;;;;;;25.83;10.73;;;15.40;29.10;;;;;;5018056;28;20451;-77
2021/10/23 11:38:22;;;;;;;22.83;7.80;;;15.30;30.00;;;;;;5015197;28;20426;-77
2021/10/23 11:40:56;;;;;;;13.30;6.53;;;15.30;29.40;;;;;;5015517;28;20418;-77
2021/10/23 11:43:22;;;;;;;16.20;7.27;;;15.30;29.10;;;;;;4994510;28;20580;-78
2021/10/23 11:45:47;;;;;;;18.73;7.27;;;15.30;28.40;;;;;;5020109;28;20431;-76
2021/10/23 11:48:15;;;;;;;14.13;5.80;;;15.20;28.90;;;;;;5012126;28;20490;-76
2021/10/23 11:50:42;;;;;;;15.90;7.30;;;15.20;28.20;;;;;;5018397;28;20176;-77
2021/10/23 11:53:18;;;;;;;18.17;6.70;;;15.30;27.70;;;;;;5019970;28;20431;-77
2021/10/23 11:55:47;;;;;;;20.50;7.60;;;15.20;27.40;;;;;;5010660;28;20460;-78
2021/10/23 11:58:18;;;;;;;17.07;7.90;;;15.10;28.20;;;;;;5002512;28;20431;-77
2021/10/23 12:00:48;;;;;;;15.83;8.77;;;15.70;27.70;;;;;;5010067;28;20434;-77
2021/10/23 12:03:30;;;;;;;13.10;6.53;;;16.00;26.50;;;;;;5003009;28;20997;-77
2021/10/23 12:05:56;;;;;;;16.87;5.90;;;16.10;26.20;;;;;;5029530;28;20477;-75
2021/10/23 12:08:31;;;;;;;12.37;5.80;;;16.10;25.10;;;;;;5010777;28;20520;-74
2021/10/23 12:11:13;;;;;;;10.50;6.10;;;15.80;25.80;;;;;;5010425;28;20430;-77
2021/10/23 12:14:04;;;;;;;14.30;7.43;;;15.60;26.20;;;;;;5010745;28;20416;-73
2021/10/23 12:16:40;;;;;;;13.67;6.47;;;15.50;26.80;;;;;;5015591;28;20419;-74
2021/10/23 12:19:09;;;;;;;13.33;5.67;;;15.70;25.60;;;;;;5030830;28;20857;-75
2021/10/23 12:21:46;;;;;;;14.77;6.37;;;15.70;24.60;;;;;;4997527;28;20428;-74
2021/10/23 12:24:18;;;;;;;16.90;6.73;;;15.90;24.80;;;;;;5012118;28;20446;-74
2021/10/23 12:27:03;;;;;;;15.10;7.37;;;15.80;25.70;;;;;;5028128;28;20434;-77
2021/10/23 12:29:41;;;;;;;14.53;6.17;;;15.80;24.60;;;;;;5027915;28;20783;-75
2021/10/23 12:32:08;;;;;;;14.47;6.40;;;15.80;23.70;;;;;;5008714;28;20500;-76
2021/10/23 12:34:52;;;;;;;15.70;5.73;;;15.70;23.30;;;;;;5012209;28;20434;-76
2021/10/23 12:37:27;;;;;;;14.30;5.77;;;15.50;22.00;;;;;;5011611;28;20419;-77
2021/10/23 12:40:08;;;;;;;19.37;6.43;;;15.60;22.50;;;;;;5009123;28;20417;-76
2021/10/23 12:42:36;;;;;;;9.50;2.93;;;15.80;20.90;;;;;;5014834;28;20417;-76
2021/10/23 12:45:03;;;;;;;7.23;2.90;;;15.80;17.60;;;;;;5013536;28;20469;-76
2021/10/23 12:47:29;;;;;;;6.90;2.10;;;15.70;16.70;;;;;;5014371;28;20415;-76
2021/10/23 12:49:55;;;;;;;9.53;3.50;;;15.50;14.80;;;;;;5012850;28;20737;-76